createdAt,value
2017-07-20T00:02:10.042Z,95.80
2017-07-20T00:04:38.433Z,95.80
2017-07-20T00:07:06.886Z,95.40
2017-07-20T00:09:35.270Z,95.50
2017-07-20T00:12:03.659Z,95.90
2017-07-20T00:14:32.080Z,96.40
2017-07-20T00:17:01.217Z,96.90
2017-07-20T00:19:30.501Z,96.70
2017-07-20T00:21:58.897Z,96.90
2017-07-20T00:24:27.270Z,96.20
2017-07-20T00:26:55.663Z,96.60
2017-07-20T00:29:24.063Z,96.50
2017-07-20T00:31:52.500Z,97.40
2017-07-20T00:34:20.890Z,97.00
2017-07-20T00:36:49.277Z,97.00
2017-07-20T00:39:17.667Z,96.60
2017-07-20T00:41:46.058Z,96.90
2017-07-20T00:44:14.897Z,97.10
2017-07-20T00:46:43.289Z,96.60
2017-07-20T00:49:11.674Z,96.30
2017-07-20T00:51:40.094Z,96.30
2017-07-20T00:54:08.479Z,96.30
2017-07-20T00:56:37.116Z,96.40
2017-07-20T00:59:05.504Z,96.20
2017-07-20T01:01:33.892Z,96.20
2017-07-20T01:04:02.297Z,96.10
2017-07-20T01:06:30.705Z,96.60
2017-07-20T01:08:59.374Z,97.60
2017-07-20T01:11:27.811Z,97.50
2017-07-20T01:13:56.183Z,97.50
2017-07-20T01:16:24.813Z,97.20
2017-07-20T01:18:54.097Z,97.00
2017-07-20T01:21:22.502Z,97.00
2017-07-20T01:23:51.316Z,97.20
2017-07-20T01:26:19.720Z,97.00
2017-07-20T01:28:48.124Z,96.70
2017-07-20T01:31:16.734Z,96.70
2017-07-20T01:33:45.130Z,96.70
2017-07-20T01:36:14.338Z,96.60
2017-07-20T01:38:43.010Z,96.80
2017-07-20T01:41:11.417Z,96.50
2017-07-20T01:43:39.154Z,97.00
2017-07-20T01:46:07.917Z,96.50
2017-07-20T01:48:36.306Z,97.10
2017-07-20T01:51:04.365Z,97.60
2017-07-20T01:53:32.845Z,97.50
2017-07-20T01:56:00.883Z,97.70
2017-07-20T01:58:29.277Z,97.20
2017-07-20T02:00:57.005Z,97.10
2017-07-20T02:03:24.705Z,96.90
2017-07-20T02:05:53.862Z,97.60
2017-07-20T02:08:22.598Z,97.50
2017-07-20T02:10:50.653Z,96.60
2017-07-20T02:13:19.045Z,96.50
2017-07-20T02:15:47.628Z,96.70
2017-07-20T02:18:16.016Z,97.60
2017-07-20T02:20:44.405Z,97.50
2017-07-20T02:23:13.106Z,98.40
2017-07-20T02:25:41.507Z,99.60
2017-07-20T02:28:09.906Z,99.90
2017-07-20T02:30:38.643Z,99.90
2017-07-20T02:33:07.068Z,99.90
2017-07-20T02:35:35.462Z,99.90
2017-07-20T02:38:04.737Z,99.90
2017-07-20T02:40:33.129Z,99.90
2017-07-20T02:43:01.503Z,99.90
2017-07-20T02:45:30.740Z,99.90
2017-07-20T02:47:59.134Z,99.90
2017-07-20T02:50:27.518Z,99.90
2017-07-20T02:52:56.527Z,99.90
2017-07-20T02:55:25.474Z,99.90
2017-07-20T02:57:53.863Z,99.90
2017-07-20T03:00:22.531Z,99.90
2017-07-20T03:02:50.935Z,99.90
2017-07-20T03:05:19.330Z,99.90
2017-07-20T03:07:47.766Z,99.90
2017-07-20T03:10:16.148Z,99.90
2017-07-20T03:12:44.602Z,99.90
2017-07-20T03:15:13.503Z,99.90
2017-07-20T03:17:42.657Z,99.90
2017-07-20T03:20:10.703Z,99.90
2017-07-20T03:22:47.614Z,99.90
2017-07-20T03:25:16.002Z,99.90
2017-07-20T03:27:44.450Z,99.90
2017-07-20T03:30:13.304Z,99.90
2017-07-20T03:32:41.697Z,99.90
2017-07-20T03:35:10.068Z,99.90
2017-07-20T03:37:38.490Z,99.90
2017-07-20T03:40:06.893Z,99.90
2017-07-20T03:42:35.282Z,99.90
2017-07-20T03:45:04.694Z,99.90
2017-07-20T03:47:33.095Z,99.90
2017-07-20T03:50:01.499Z,99.90
2017-07-20T03:52:30.340Z,99.90
2017-07-20T03:54:59.492Z,99.90
2017-07-20T03:57:27.881Z,99.90
2017-07-20T03:59:56.301Z,99.90
2017-07-20T04:02:24.675Z,99.90
2017-07-20T04:04:53.062Z,99.90
2017-07-20T04:07:21.787Z,99.90
2017-07-20T04:09:50.177Z,99.90
2017-07-20T04:12:18.564Z,99.90
2017-07-20T04:14:47.386Z,99.90
2017-07-20T04:17:15.775Z,99.90
2017-07-20T04:19:44.190Z,99.90
2017-07-20T04:22:12.830Z,99.90
2017-07-20T04:24:41.224Z,99.90
2017-07-20T04:27:09.620Z,99.90
2017-07-20T04:29:38.086Z,99.90
2017-07-20T04:32:06.476Z,99.90
2017-07-20T04:34:34.877Z,99.90
2017-07-20T04:37:03.314Z,99.90
2017-07-20T04:39:31.709Z,99.90
2017-07-20T04:42:00.103Z,99.90
2017-07-20T04:44:28.622Z,99.90
2017-07-20T04:46:57.785Z,99.90
2017-07-20T04:49:26.174Z,99.90
2017-07-20T04:51:54.575Z,99.90
2017-07-20T04:54:23.755Z,99.90
2017-07-20T04:56:52.158Z,99.90
2017-07-20T04:59:20.942Z,99.90
2017-07-20T05:01:49.319Z,99.90
2017-07-20T05:04:18.516Z,99.90
2017-07-20T05:06:47.892Z,99.90
2017-07-20T05:09:16.286Z,99.90
2017-07-20T05:11:45.440Z,99.90
2017-07-20T05:14:13.858Z,99.90
2017-07-20T05:16:43.023Z,99.90
2017-07-20T05:19:11.479Z,99.90
2017-07-20T05:21:40.256Z,99.90
2017-07-20T05:24:09.562Z,99.90
2017-07-20T05:26:37.949Z,99.90
2017-07-20T05:29:06.445Z,99.90
2017-07-20T05:31:34.864Z,99.90
2017-07-20T05:34:03.162Z,99.90
2017-07-20T05:36:31.591Z,99.90
2017-07-20T05:38:59.989Z,99.90
2017-07-20T05:41:28.225Z,99.90
2017-07-20T05:43:56.655Z,99.90
2017-07-20T05:46:25.823Z,99.90
2017-07-20T05:48:54.022Z,99.90
2017-07-20T05:51:23.419Z,99.90
2017-07-20T05:53:52.589Z,99.90
2017-07-20T05:56:20.977Z,99.90
2017-07-20T05:58:49.574Z,99.90
2017-07-20T06:01:18.713Z,99.90
2017-07-20T06:03:47.103Z,99.90
2017-07-20T06:06:15.605Z,99.90
2017-07-20T06:08:44.001Z,99.90
2017-07-20T06:11:12.451Z,99.90
2017-07-20T06:13:40.961Z,99.90
2017-07-20T06:16:09.347Z,99.90
2017-07-20T06:18:38.542Z,99.90
2017-07-20T06:21:07.944Z,99.90
2017-07-20T06:23:37.117Z,99.90
2017-07-20T06:26:05.519Z,99.90
2017-07-20T06:28:34.948Z,99.90
2017-07-20T06:31:04.003Z,99.90
2017-07-20T06:33:32.392Z,99.90
2017-07-20T06:36:01.068Z,99.90
2017-07-20T06:38:30.237Z,99.90
2017-07-20T06:40:58.631Z,99.90
2017-07-20T06:43:27.074Z,99.90
2017-07-20T06:45:55.458Z,99.90
2017-07-20T06:48:23.869Z,99.90
2017-07-20T06:50:53.203Z,99.90
2017-07-20T06:53:21.410Z,99.90
2017-07-20T06:55:49.879Z,99.90
2017-07-20T06:58:18.056Z,99.90
2017-07-20T07:00:46.431Z,99.90
2017-07-20T07:03:14.817Z,99.90
2017-07-20T07:05:43.568Z,99.90
2017-07-20T07:08:11.949Z,99.90
2017-07-20T07:10:40.355Z,99.90
2017-07-20T07:13:08.914Z,99.90
2017-07-20T07:15:37.312Z,99.90
2017-07-20T07:18:05.710Z,99.90
2017-07-20T07:20:34.211Z,99.90
2017-07-20T07:23:02.606Z,99.90
2017-07-20T07:25:31.004Z,99.90
2017-07-20T07:27:59.684Z,99.90
2017-07-20T07:30:28.133Z,99.90
2017-07-20T07:32:56.523Z,99.90
2017-07-20T07:35:25.330Z,99.90
2017-07-20T07:37:53.714Z,99.90
2017-07-20T07:40:22.107Z,99.90
2017-07-20T07:42:50.522Z,99.90
2017-07-20T07:45:18.955Z,99.90
2017-07-20T07:47:47.390Z,99.90
2017-07-20T07:50:16.208Z,99.90
2017-07-20T07:52:45.374Z,99.90
2017-07-20T07:55:13.823Z,99.90
2017-07-20T07:57:42.619Z,99.90
2017-07-20T08:00:10.715Z,99.90
2017-07-20T08:02:39.109Z,99.90
2017-07-20T08:05:07.713Z,99.90
2017-07-20T08:07:36.115Z,99.90
2017-07-20T08:10:04.502Z,99.90
2017-07-20T08:12:33.910Z,99.90
2017-07-20T08:15:02.287Z,99.90
2017-07-20T08:17:30.691Z,99.90
2017-07-20T08:19:59.198Z,99.90
2017-07-20T08:22:28.351Z,99.90
2017-07-20T08:24:56.871Z,99.90
2017-07-20T08:27:25.612Z,99.90
2017-07-20T08:29:53.999Z,99.90
2017-07-20T08:32:22.389Z,99.90
2017-07-20T08:34:50.887Z,99.90
2017-07-20T08:37:19.274Z,99.90
2017-07-20T08:39:47.660Z,99.90
2017-07-20T08:42:16.079Z,99.90
2017-07-20T08:44:44.478Z,99.90
2017-07-20T08:47:12.858Z,99.90
2017-07-20T08:49:41.277Z,99.90
2017-07-20T08:52:09.686Z,99.80
2017-07-20T08:54:38.070Z,99.90
2017-07-20T08:57:06.506Z,99.60
2017-07-20T08:59:34.904Z,99.40
2017-07-20T09:02:03.300Z,98.20
2017-07-20T09:04:31.733Z,98.50
2017-07-20T09:07:00.123Z,98.70
2017-07-20T09:09:28.527Z,98.30
2017-07-20T09:11:56.944Z,97.70
2017-07-20T09:14:25.340Z,97.20
2017-07-20T09:16:54.494Z,97.60
2017-07-20T09:19:22.985Z,97.80
2017-07-20T09:21:51.629Z,97.40
2017-07-20T09:24:20.007Z,97.40
2017-07-20T09:26:48.426Z,96.80
2017-07-20T09:29:16.815Z,96.80
2017-07-20T09:31:45.219Z,96.50
2017-07-20T09:34:13.652Z,96.80
2017-07-20T09:36:42.069Z,96.90
2017-07-20T09:39:10.456Z,96.60
2017-07-20T09:41:38.880Z,95.60
2017-07-20T09:44:07.084Z,96.30
2017-07-20T09:46:35.283Z,96.70
2017-07-20T09:49:03.902Z,96.60
2017-07-20T09:51:32.297Z,96.40
2017-07-20T09:54:00.702Z,96.50
2017-07-20T09:56:29.819Z,94.90
2017-07-20T09:58:58.251Z,94.30
2017-07-20T10:01:26.645Z,92.80
2017-07-20T10:03:55.287Z,93.20
2017-07-20T10:06:23.677Z,93.10
2017-07-20T10:08:52.050Z,92.20
2017-07-20T10:11:20.883Z,91.60
2017-07-20T10:13:49.292Z,91.00
2017-07-20T10:16:17.709Z,90.10
2017-07-20T10:18:46.177Z,89.10
2017-07-20T10:21:14.657Z,90.60
2017-07-20T10:23:43.035Z,91.00
2017-07-20T10:26:11.735Z,91.80
2017-07-20T10:28:40.124Z,92.30
2017-07-20T10:31:08.528Z,91.20
2017-07-20T10:33:37.233Z,91.00
2017-07-20T10:36:06.433Z,87.90
2017-07-20T10:38:35.631Z,84.30
2017-07-20T10:41:04.369Z,84.20
2017-07-20T10:43:32.763Z,82.10
2017-07-20T10:46:01.148Z,80.20
2017-07-20T10:48:29.580Z,77.40
2017-07-20T10:50:57.957Z,76.70
2017-07-20T10:53:26.379Z,75.60
2017-07-20T10:55:54.793Z,75.20
2017-07-20T10:58:23.185Z,72.70
2017-07-20T11:00:51.568Z,72.90
2017-07-20T11:03:19.993Z,71.10
2017-07-20T11:05:48.406Z,73.30
2017-07-20T11:08:16.814Z,73.00
2017-07-20T11:10:45.233Z,73.10
2017-07-20T11:13:13.622Z,71.20
2017-07-20T11:15:42.002Z,72.40
2017-07-20T11:18:11.184Z,74.00
2017-07-20T11:20:39.576Z,73.90
2017-07-20T11:23:08.751Z,76.40
2017-07-20T11:25:37.379Z,76.40
2017-07-20T11:28:05.777Z,75.40
2017-07-20T11:30:34.163Z,75.30
2017-07-20T11:33:03.274Z,73.30
2017-07-20T11:35:31.677Z,75.00
2017-07-20T11:38:00.078Z,73.30
2017-07-20T11:40:28.589Z,75.00
2017-07-20T11:42:57.006Z,73.30
2017-07-20T11:45:25.386Z,75.40
2017-07-20T11:47:53.884Z,71.90
2017-07-20T11:50:23.019Z,70.90
2017-07-20T11:52:51.414Z,70.90
2017-07-20T11:55:19.945Z,71.40
2017-07-20T11:57:48.399Z,70.40
2017-07-20T12:00:16.805Z,68.80
2017-07-20T12:02:46.078Z,71.10
2017-07-20T12:05:14.470Z,70.90
2017-07-20T12:07:43.645Z,71.20
2017-07-20T12:10:12.266Z,70.40
2017-07-20T12:12:40.649Z,70.50
2017-07-20T12:15:09.030Z,69.50
2017-07-20T12:17:37.913Z,69.40
2017-07-20T12:20:06.417Z,69.80
2017-07-20T12:22:34.810Z,69.20
2017-07-20T12:25:03.233Z,71.80
2017-07-20T12:27:32.411Z,69.20
2017-07-20T12:30:00.858Z,69.20
2017-07-20T12:32:29.597Z,69.30
2017-07-20T12:34:58.751Z,69.00
2017-07-20T12:37:27.143Z,68.90
2017-07-20T12:39:55.555Z,71.00
2017-07-20T12:42:24.703Z,70.20
2017-07-20T12:44:53.089Z,70.10
2017-07-20T12:47:22.489Z,71.60
2017-07-20T12:49:50.883Z,72.40
2017-07-20T12:52:19.277Z,72.30
2017-07-20T12:54:48.645Z,72.40
2017-07-20T12:57:17.045Z,72.30
2017-07-20T12:59:45.436Z,71.90
2017-07-20T13:02:14.845Z,70.60
2017-07-20T13:04:43.999Z,72.70
2017-07-20T13:07:12.418Z,72.80
2017-07-20T13:09:41.588Z,72.30
2017-07-20T13:12:09.972Z,72.20
2017-07-20T13:14:38.365Z,69.10
2017-07-20T13:17:07.553Z,68.10
2017-07-20T13:19:35.943Z,68.10
2017-07-20T13:22:05.096Z,70.20
2017-07-20T13:24:33.664Z,70.10
2017-07-20T13:27:02.062Z,70.20
2017-07-20T13:29:30.460Z,70.20
2017-07-20T13:31:59.056Z,66.30
2017-07-20T13:34:27.449Z,66.40
2017-07-20T13:36:55.821Z,66.90
2017-07-20T13:39:25.214Z,66.90
2017-07-20T13:41:53.624Z,66.90
2017-07-20T13:44:22.682Z,67.60
2017-07-20T13:46:51.942Z,69.40
2017-07-20T13:49:20.316Z,69.30
2017-07-20T13:51:48.709Z,68.90
2017-07-20T13:54:17.303Z,70.10
2017-07-20T13:56:45.694Z,69.50
2017-07-20T13:59:14.078Z,68.50
2017-07-20T14:01:43.345Z,71.40
2017-07-20T14:04:11.743Z,71.40
2017-07-20T14:06:40.131Z,69.70
2017-07-20T14:09:08.825Z,69.10
2017-07-20T14:11:37.786Z,67.70
2017-07-20T14:14:06.239Z,67.70
2017-07-20T14:16:35.142Z,69.00
2017-07-20T14:19:03.541Z,69.30
2017-07-20T14:21:31.949Z,68.80
2017-07-20T14:24:00.499Z,68.70
2017-07-20T14:26:29.560Z,70.70
2017-07-20T14:28:57.948Z,70.50
2017-07-20T14:31:26.366Z,71.60
2017-07-20T14:33:54.773Z,72.20
2017-07-20T14:36:23.161Z,68.70
2017-07-20T14:38:51.731Z,69.90
2017-07-20T14:41:20.122Z,69.70
2017-07-20T14:43:48.509Z,68.60
2017-07-20T14:46:17.220Z,69.20
2017-07-20T14:48:45.618Z,69.80
2017-07-20T14:51:14.001Z,67.70
2017-07-20T14:53:42.455Z,69.10
2017-07-20T14:56:10.844Z,69.00
2017-07-20T14:58:39.232Z,70.10
2017-07-20T15:01:07.683Z,70.40
2017-07-20T15:03:36.081Z,69.10
2017-07-20T15:06:04.475Z,68.20
2017-07-20T15:08:33.655Z,71.00
2017-07-20T15:11:02.050Z,71.00
2017-07-20T15:13:30.438Z,71.70
2017-07-20T15:16:00.313Z,72.30
2017-07-20T15:18:28.703Z,72.30
2017-07-20T15:20:57.086Z,71.30
2017-07-20T15:23:25.481Z,70.60
2017-07-20T15:25:54.635Z,71.60
2017-07-20T15:28:23.282Z,71.60
2017-07-20T15:30:54.954Z,73.00
2017-07-20T15:33:23.386Z,73.90
2017-07-20T15:35:51.786Z,72.40
2017-07-20T15:38:20.191Z,72.60
2017-07-20T15:40:48.569Z,74.20
2017-07-20T15:43:17.148Z,74.20
2017-07-20T15:45:45.556Z,74.90
2017-07-20T15:48:13.962Z,74.80
2017-07-20T15:50:42.653Z,77.00
2017-07-20T15:53:11.041Z,76.00
2017-07-20T15:55:39.430Z,75.30
2017-07-20T15:58:08.008Z,74.30
2017-07-20T16:00:36.412Z,74.50
2017-07-20T16:03:04.796Z,75.40
2017-07-20T16:05:33.302Z,74.30
2017-07-20T16:08:01.707Z,76.40
2017-07-20T16:10:30.861Z,76.10
2017-07-20T16:12:59.356Z,76.10
2017-07-20T16:15:27.753Z,76.50
2017-07-20T16:17:56.201Z,76.70
2017-07-20T16:20:25.029Z,77.10
2017-07-20T16:22:54.186Z,78.00
2017-07-20T16:25:22.605Z,77.90
2017-07-20T16:27:51.191Z,77.10
2017-07-20T16:30:20.347Z,78.40
2017-07-20T16:32:48.742Z,78.20
2017-07-20T16:35:18.270Z,79.20
2017-07-20T16:37:46.682Z,78.40
2017-07-20T16:40:15.080Z,78.40
2017-07-20T16:42:43.698Z,79.90
2017-07-20T16:45:12.088Z,79.50
2017-07-20T16:47:40.523Z,79.20
2017-07-20T16:50:09.370Z,80.00
2017-07-20T16:52:37.811Z,80.20
2017-07-20T16:55:06.199Z,80.30
2017-07-20T16:57:34.621Z,80.90
2017-07-20T17:00:03.049Z,81.60
2017-07-20T17:02:31.442Z,81.70
2017-07-20T17:05:00.040Z,83.20
2017-07-20T17:07:28.434Z,82.70
2017-07-20T17:09:56.825Z,84.00
2017-07-20T17:12:25.567Z,89.20
2017-07-20T17:14:53.983Z,91.10
2017-07-20T17:17:22.378Z,93.90
2017-07-20T17:19:50.873Z,96.90
2017-07-20T17:22:19.261Z,98.40
2017-07-20T17:24:47.637Z,99.60
2017-07-20T17:27:16.069Z,99.90
2017-07-20T17:29:44.467Z,99.90
2017-07-20T17:32:12.849Z,99.90
2017-07-20T17:34:41.491Z,99.90
2017-07-20T17:37:09.880Z,99.90
2017-07-20T17:39:38.256Z,99.90
2017-07-20T17:42:06.945Z,99.90
2017-07-20T17:44:35.334Z,99.90
2017-07-20T17:47:03.753Z,99.90
2017-07-20T17:49:32.379Z,99.90
2017-07-20T17:52:01.443Z,99.90
2017-07-20T17:54:30.603Z,99.90
2017-07-20T17:56:59.040Z,99.90
2017-07-20T17:59:27.430Z,99.90
2017-07-20T18:01:55.908Z,99.90
2017-07-20T18:04:26.660Z,99.90
2017-07-20T18:06:57.202Z,99.90
2017-07-20T18:09:25.598Z,99.90
2017-07-20T18:11:54.145Z,99.90
2017-07-20T18:14:22.534Z,99.90
2017-07-20T18:16:52.559Z,99.90
2017-07-20T18:19:21.338Z,99.90
2017-07-20T18:21:49.714Z,99.90
2017-07-20T18:24:18.119Z,99.90
2017-07-20T18:26:46.546Z,99.90
2017-07-20T18:29:14.746Z,99.90
2017-07-20T18:31:43.136Z,99.90
2017-07-20T18:34:11.641Z,99.90
2017-07-20T18:36:40.035Z,99.90
2017-07-20T18:39:09.204Z,99.90
2017-07-20T18:41:37.623Z,99.90
2017-07-20T18:44:06.002Z,99.90
2017-07-20T18:46:34.247Z,99.90
2017-07-20T18:49:02.855Z,99.50
2017-07-20T18:51:31.243Z,99.10
2017-07-20T18:53:59.690Z,99.20
2017-07-20T18:56:28.095Z,99.20
2017-07-20T18:58:56.470Z,98.80
2017-07-20T19:01:24.859Z,99.00
2017-07-20T19:03:53.273Z,98.70
2017-07-20T19:06:21.668Z,98.60
2017-07-20T19:08:50.058Z,98.70
2017-07-20T19:11:18.659Z,98.90
2017-07-20T19:13:47.812Z,98.70
2017-07-20T19:16:16.053Z,98.70
2017-07-20T19:18:44.457Z,98.60
2017-07-20T19:21:12.849Z,98.50
2017-07-20T19:23:41.249Z,98.70
2017-07-20T19:26:11.021Z,98.60
2017-07-20T19:28:39.412Z,98.90
2017-07-20T19:31:07.799Z,98.50
2017-07-20T19:33:36.203Z,98.40
2017-07-20T19:36:05.271Z,98.60
2017-07-20T19:38:33.663Z,98.30
2017-07-20T19:41:02.256Z,98.60
2017-07-20T19:43:31.430Z,98.70
2017-07-20T19:45:59.831Z,98.60
2017-07-20T19:48:28.290Z,98.60
2017-07-20T19:50:56.737Z,98.80
2017-07-20T19:53:25.120Z,98.90
2017-07-20T19:55:53.609Z,98.90
2017-07-20T19:58:22.000Z,98.40
2017-07-20T20:00:50.394Z,98.50
2017-07-20T20:03:19.022Z,98.20
2017-07-20T20:05:47.422Z,98.00
2017-07-20T20:08:15.831Z,97.90
2017-07-20T20:10:44.266Z,98.00
2017-07-20T20:13:12.655Z,97.90
2017-07-20T20:15:41.043Z,97.80
2017-07-20T20:18:09.463Z,97.90
2017-07-20T20:20:38.628Z,97.70
2017-07-20T20:23:07.026Z,97.70
2017-07-20T20:25:36.228Z,98.10
2017-07-20T20:28:04.625Z,98.00
2017-07-20T20:30:33.025Z,98.10
2017-07-20T20:33:01.573Z,98.30
2017-07-20T20:35:30.738Z,98.40
2017-07-20T20:37:59.135Z,98.40
2017-07-20T20:40:28.782Z,98.40
2017-07-20T20:42:57.182Z,98.30
2017-07-20T20:45:25.586Z,98.10
2017-07-20T20:47:54.102Z,98.20
2017-07-20T20:50:22.502Z,98.10
2017-07-20T20:52:50.893Z,98.20
2017-07-20T20:55:19.313Z,98.30
2017-07-20T20:57:48.493Z,98.40
2017-07-20T21:00:16.548Z,98.40
2017-07-20T21:02:44.961Z,98.40
2017-07-20T21:05:14.138Z,98.50
2017-07-20T21:07:42.532Z,98.50
2017-07-20T21:10:11.951Z,98.40
2017-07-20T21:12:41.150Z,98.20
2017-07-20T21:15:09.570Z,98.10
2017-07-20T21:17:38.449Z,98.20
2017-07-20T21:20:06.852Z,98.30
2017-07-20T21:22:35.239Z,98.10
2017-07-20T21:25:03.660Z,98.20
2017-07-20T21:27:32.047Z,98.20
2017-07-20T21:30:00.440Z,98.30
2017-07-20T21:32:29.044Z,98.30
2017-07-20T21:34:57.455Z,98.60
2017-07-20T21:37:25.860Z,98.60
2017-07-20T21:39:54.272Z,98.50
2017-07-20T21:42:22.679Z,98.30
2017-07-20T21:44:51.081Z,98.40
2017-07-20T21:47:20.612Z,98.40
2017-07-20T21:49:49.009Z,98.40
2017-07-20T21:52:17.412Z,98.40
2017-07-20T21:54:45.978Z,98.30
2017-07-20T21:57:14.381Z,98.30
2017-07-20T21:59:43.298Z,98.30
2017-07-20T22:02:12.856Z,98.30
2017-07-20T22:04:41.261Z,98.20
2017-07-20T22:07:09.650Z,98.40
2017-07-20T22:09:38.912Z,99.00
2017-07-20T22:12:07.298Z,98.90
2017-07-20T22:14:35.687Z,98.70
2017-07-20T22:17:04.228Z,98.10
2017-07-20T22:19:32.641Z,98.00
2017-07-20T22:22:01.037Z,97.50
2017-07-20T22:24:30.295Z,97.30
2017-07-20T22:26:58.670Z,97.20
2017-07-20T22:29:27.057Z,97.30
2017-07-20T22:31:55.455Z,97.40
2017-07-20T22:34:26.084Z,97.60
2017-07-20T22:36:56.775Z,98.00
2017-07-20T22:39:25.283Z,97.90
2017-07-20T22:41:54.392Z,97.70
2017-07-20T22:44:22.798Z,97.20
2017-07-20T22:46:51.185Z,96.90
2017-07-20T22:49:19.589Z,96.70
2017-07-20T22:51:48.006Z,97.00
2017-07-20T22:54:16.395Z,97.20
2017-07-20T22:56:44.785Z,97.40
2017-07-20T22:59:14.048Z,97.40
2017-07-20T23:01:42.601Z,97.30
2017-07-20T23:04:10.998Z,97.30
2017-07-20T23:06:39.437Z,97.50
2017-07-20T23:09:07.830Z,98.00
2017-07-20T23:11:36.351Z,98.30
2017-07-20T23:14:05.581Z,98.90
2017-07-20T23:16:34.752Z,98.90
2017-07-20T23:19:03.141Z,98.80
2017-07-20T23:21:32.549Z,98.90
2017-07-20T23:24:01.703Z,98.50
2017-07-20T23:26:30.094Z,98.50
2017-07-20T23:28:58.601Z,99.00
2017-07-20T23:31:27.742Z,98.80
2017-07-20T23:33:56.131Z,98.60
2017-07-20T23:36:24.862Z,98.50
2017-07-20T23:38:53.252Z,98.40
2017-07-20T23:41:22.405Z,97.50
2017-07-20T23:43:50.825Z,97.50
2017-07-20T23:46:19.979Z,97.00
2017-07-20T23:48:48.363Z,97.00
2017-07-20T23:51:16.732Z,96.40
2017-07-20T23:53:45.116Z,96.00
2017-07-20T23:56:13.506Z,95.70
2017-07-20T23:58:42.122Z,95.10
